createdAt,value
2023-01-07T00:00:14.755Z,84.29
2023-01-07T00:01:22.306Z,88.22
2023-01-07T00:02:24.006Z,86.99
2023-01-07T00:03:25.755Z,85.11
2023-01-07T00:04:27.369Z,86.38
2023-01-07T00:05:29.017Z,84.92
2023-01-07T00:06:33.404Z,85.35
2023-01-07T00:07:35.066Z,85.10
2023-01-07T00:08:38.209Z,84.54
2023-01-07T00:09:39.884Z,84.47
2023-01-07T00:10:41.494Z,85.89
2023-01-07T00:11:43.190Z,85.58
2023-01-07T00:12:44.816Z,85.00
2023-01-07T00:13:48.559Z,85.90
2023-01-07T00:14:50.129Z,84.60
2023-01-07T00:15:51.827Z,85.57
2023-01-07T00:16:53.471Z,85.28
2023-01-07T00:17:55.099Z,84.15
2023-01-07T00:18:58.635Z,84.34
2023-01-07T00:20:00.220Z,84.06
2023-01-07T00:21:04.178Z,88.51
2023-01-07T00:22:05.782Z,87.28
2023-01-07T00:23:07.377Z,86.80
2023-01-07T00:24:10.600Z,87.68
2023-01-07T00:25:12.241Z,88.89
2023-01-07T00:26:19.360Z,86.42
2023-01-07T00:27:21.572Z,85.00
2023-01-07T00:28:23.225Z,85.56
2023-01-07T00:29:24.774Z,87.06
2023-01-07T00:30:26.414Z,86.19
2023-01-07T00:31:30.498Z,87.37
2023-01-07T00:32:59.365Z,86.56
2023-01-07T00:34:01.658Z,85.02
2023-01-07T00:35:04.168Z,87.38
2023-01-07T00:36:08.582Z,83.73
2023-01-07T00:37:28.622Z,86.46
2023-01-07T00:38:30.691Z,86.59
2023-01-07T00:39:32.284Z,86.54
2023-01-07T00:40:35.538Z,86.75
2023-01-07T00:41:37.571Z,86.87
2023-01-07T00:42:54.266Z,84.75
2023-01-07T00:43:56.346Z,86.39
2023-01-07T00:44:57.943Z,84.44
2023-01-07T00:45:59.690Z,88.64
2023-01-07T00:47:01.586Z,89.13
2023-01-07T00:48:04.262Z,87.85
2023-01-07T00:49:05.963Z,84.78
2023-01-07T00:50:07.915Z,87.08
2023-01-07T00:51:09.910Z,84.23
2023-01-07T00:52:11.561Z,86.54
2023-01-07T00:53:13.235Z,84.69
2023-01-07T00:54:14.913Z,85.02
2023-01-07T00:55:17.311Z,84.15
2023-01-07T00:56:19.177Z,84.32
2023-01-07T00:57:20.799Z,85.40
2023-01-07T00:58:24.784Z,84.21
2023-01-07T00:59:27.537Z,85.58
2023-01-07T01:00:29.371Z,85.19
2023-01-07T01:01:31.129Z,83.31
2023-01-07T01:02:32.904Z,83.62
2023-01-07T01:03:34.969Z,84.19
2023-01-07T01:04:37.156Z,90.04
2023-01-07T01:05:39.309Z,84.40
2023-01-07T01:06:40.952Z,85.65
2023-01-07T01:07:42.839Z,87.48
2023-01-07T01:08:45.780Z,87.44
2023-01-07T01:09:47.382Z,88.10
2023-01-07T01:10:48.983Z,86.87
2023-01-07T01:11:50.661Z,84.81
2023-01-07T01:12:52.282Z,85.13
2023-01-07T01:13:53.885Z,85.27
2023-01-07T01:14:55.494Z,87.56
2023-01-07T01:15:57.167Z,88.42
2023-01-07T01:16:58.881Z,85.61
2023-01-07T01:18:00.458Z,84.53
2023-01-07T01:19:02.076Z,84.71
2023-01-07T01:20:04.038Z,88.51
2023-01-07T01:21:07.927Z,83.61
2023-01-07T01:22:09.563Z,87.14
2023-01-07T01:23:11.574Z,86.47
2023-01-07T01:24:13.437Z,85.47
2023-01-07T01:25:15.409Z,89.72
2023-01-07T01:26:17.410Z,84.95
2023-01-07T01:27:19.397Z,87.97
2023-01-07T01:28:20.979Z,88.18
2023-01-07T01:29:22.591Z,84.89
2023-01-07T01:30:24.840Z,87.90
2023-01-07T01:31:26.665Z,89.18
2023-01-07T01:32:29.396Z,88.82
2023-01-07T01:33:31.200Z,88.75
2023-01-07T01:34:32.998Z,86.69
2023-01-07T01:35:34.562Z,85.74
2023-01-07T01:36:37.034Z,86.70
2023-01-07T01:37:38.642Z,88.15
2023-01-07T01:38:41.260Z,84.17
2023-01-07T01:39:43.473Z,85.70
2023-01-07T01:40:45.133Z,89.08
2023-01-07T01:41:47.485Z,85.93
2023-01-07T01:42:49.030Z,84.56
2023-01-07T01:43:52.925Z,84.63
2023-01-07T01:44:56.677Z,86.31
2023-01-07T01:46:21.949Z,85.13
2023-01-07T01:47:42.972Z,84.15
2023-01-07T01:48:49.119Z,88.56
2023-01-07T01:50:10.928Z,86.52
2023-01-07T01:51:13.790Z,87.83
2023-01-07T01:52:21.314Z,87.11
2023-01-07T01:53:34.499Z,86.61
2023-01-07T01:54:36.338Z,84.63
2023-01-07T01:55:42.036Z,86.97
2023-01-07T01:56:45.584Z,88.40
2023-01-07T01:57:48.816Z,85.35
2023-01-07T01:58:56.833Z,85.83
2023-01-07T01:59:58.788Z,88.44
2023-01-07T02:01:01.606Z,88.94
2023-01-07T02:02:07.216Z,85.49
2023-01-07T02:03:12.148Z,84.85
2023-01-07T02:04:16.564Z,84.94
2023-01-07T02:05:18.521Z,85.91
2023-01-07T02:06:25.396Z,85.53
2023-01-07T02:07:28.213Z,85.43
2023-01-07T02:08:32.088Z,86.76
2023-01-07T02:09:37.429Z,89.28
2023-01-07T02:10:40.107Z,84.22
2023-01-07T02:11:54.528Z,83.68
2023-01-07T02:13:20.987Z,85.82
2023-01-07T02:14:47.306Z,85.37
2023-01-07T02:16:07.603Z,83.12
2023-01-07T02:17:23.240Z,86.26
2023-01-07T02:18:45.885Z,83.64
2023-01-07T02:20:05.898Z,86.30
2023-01-07T02:21:48.784Z,88.13
2023-01-07T02:23:16.569Z,88.97
2023-01-07T02:24:51.735Z,88.37
2023-01-07T02:26:23.728Z,89.75
2023-01-07T02:27:30.959Z,88.44
2023-01-07T02:28:59.423Z,85.44
2023-01-07T02:30:25.367Z,83.88
2023-01-07T02:31:57.165Z,86.07
2023-01-07T02:33:01.404Z,84.55
2023-01-07T02:34:05.874Z,87.24
2023-01-07T02:35:16.620Z,88.22
2023-01-07T02:36:32.320Z,85.18
2023-01-07T02:37:53.863Z,86.13
2023-01-07T02:39:05.169Z,85.28
2023-01-07T02:40:32.367Z,88.43
2023-01-07T02:41:39.538Z,86.53
2023-01-07T02:43:06.868Z,89.12
2023-01-07T02:44:23.502Z,86.51
2023-01-07T02:45:29.804Z,85.05
2023-01-07T02:46:44.369Z,89.19
2023-01-07T02:47:55.095Z,88.56
2023-01-07T02:49:10.386Z,84.62
2023-01-07T02:50:12.092Z,83.92
2023-01-07T02:51:13.723Z,87.22
2023-01-07T02:52:41.237Z,85.83
2023-01-07T02:53:45.898Z,84.11
2023-01-07T02:54:57.193Z,84.86
2023-01-07T02:56:09.808Z,84.09
2023-01-07T02:57:14.278Z,85.76
2023-01-07T02:58:42.137Z,89.16
2023-01-07T03:00:08.584Z,89.42
2023-01-07T03:01:35.184Z,87.53
2023-01-07T03:03:06.252Z,84.03
2023-01-07T03:04:22.310Z,83.73
2023-01-07T03:05:44.840Z,85.95
2023-01-07T03:07:04.674Z,88.21
2023-01-07T03:08:34.020Z,86.29
2023-01-07T03:09:51.123Z,85.46
2023-01-07T03:11:05.416Z,85.60
2023-01-07T03:12:36.890Z,85.25
2023-01-07T03:13:49.502Z,84.11
2023-01-07T03:14:59.166Z,86.10
2023-01-07T03:16:06.041Z,85.71
2023-01-07T03:17:09.713Z,85.92
2023-01-07T03:18:44.308Z,85.94
2023-01-07T03:19:49.967Z,88.44
2023-01-07T03:20:54.851Z,85.49
2023-01-07T03:21:57.589Z,85.74
2023-01-07T03:22:59.321Z,86.53
2023-01-07T03:24:01.792Z,84.52
2023-01-07T03:25:05.830Z,88.42
2023-01-07T03:26:07.470Z,84.89
2023-01-07T03:27:09.464Z,85.53
2023-01-07T03:28:12.342Z,84.88
2023-01-07T03:29:15.324Z,84.33
2023-01-07T03:30:19.305Z,86.26
2023-01-07T03:31:22.534Z,84.82
2023-01-07T03:32:32.159Z,88.88
2023-01-07T03:33:41.163Z,84.49
2023-01-07T03:34:43.604Z,84.42
2023-01-07T03:35:47.931Z,86.19
2023-01-07T03:37:00.395Z,85.71
2023-01-07T03:38:03.474Z,84.70
2023-01-07T03:39:07.445Z,85.65
2023-01-07T03:40:11.800Z,87.26
2023-01-07T03:41:33.901Z,87.80
2023-01-07T03:42:42.721Z,86.12
2023-01-07T03:43:50.112Z,85.96
2023-01-07T03:44:52.004Z,87.29
2023-01-07T03:45:55.416Z,88.08
2023-01-07T03:46:56.935Z,87.28
2023-01-07T03:47:58.779Z,88.97
2023-01-07T03:49:06.837Z,84.70
2023-01-07T03:50:10.723Z,87.04
2023-01-07T03:51:15.783Z,87.95
2023-01-07T03:52:18.217Z,89.40
2023-01-07T03:53:19.856Z,84.92
2023-01-07T03:54:24.672Z,84.60
2023-01-07T03:55:26.342Z,89.39
2023-01-07T03:56:30.193Z,86.21
2023-01-07T03:57:33.178Z,89.06
2023-01-07T03:58:36.911Z,84.35
2023-01-07T03:59:39.354Z,88.98
2023-01-07T04:00:41.044Z,86.79
2023-01-07T04:01:49.212Z,85.25
2023-01-07T04:02:51.060Z,86.14
2023-01-07T04:03:57.585Z,84.88
2023-01-07T04:04:59.362Z,85.62
2023-01-07T04:06:00.980Z,87.60
2023-01-07T04:07:03.338Z,87.41
2023-01-07T04:08:05.299Z,88.54
2023-01-07T04:09:12.043Z,84.14
2023-01-07T04:10:13.894Z,86.80
2023-01-07T04:11:16.603Z,86.94
2023-01-07T04:12:18.716Z,85.71
2023-01-07T04:13:20.395Z,86.39
2023-01-07T04:14:24.208Z,85.07
2023-01-07T04:15:25.862Z,90.40
2023-01-07T04:16:27.751Z,89.17
2023-01-07T04:17:30.436Z,86.17
2023-01-07T04:18:32.461Z,88.29
2023-01-07T04:19:34.114Z,87.90
2023-01-07T04:20:35.850Z,84.65
2023-01-07T04:21:37.513Z,88.13
2023-01-07T04:22:39.983Z,84.87
2023-01-07T04:23:43.045Z,84.83
2023-01-07T04:24:45.424Z,87.37
2023-01-07T04:25:49.269Z,86.40
2023-01-07T04:26:54.501Z,83.89
2023-01-07T04:27:56.236Z,89.10
2023-01-07T04:28:58.434Z,89.88
2023-01-07T04:30:02.102Z,85.80
2023-01-07T04:31:08.873Z,88.56
2023-01-07T04:32:11.854Z,87.18
2023-01-07T04:33:13.494Z,85.30
2023-01-07T04:34:15.181Z,86.55
2023-01-07T04:35:17.562Z,85.07
2023-01-07T04:36:19.630Z,85.58
2023-01-07T04:37:22.493Z,89.01
2023-01-07T04:38:24.860Z,89.72
2023-01-07T04:39:28.673Z,85.99
2023-01-07T04:40:31.093Z,86.83
2023-01-07T04:41:33.428Z,88.70
2023-01-07T04:42:35.162Z,86.79
2023-01-07T04:43:37.354Z,86.43
2023-01-07T04:44:40.908Z,87.33
2023-01-07T04:45:42.727Z,85.44
2023-01-07T04:46:44.851Z,86.55
2023-01-07T04:47:46.489Z,84.40
2023-01-07T04:48:48.056Z,88.83
2023-01-07T04:49:49.730Z,86.22
2023-01-07T04:50:51.396Z,88.69
2023-01-07T04:51:53.714Z,88.39
2023-01-07T04:52:55.380Z,85.44
2023-01-07T04:53:58.411Z,86.70
2023-01-07T04:55:00.414Z,86.46
2023-01-07T04:56:02.617Z,89.52
2023-01-07T04:57:04.483Z,87.88
2023-01-07T04:58:06.035Z,85.90
2023-01-07T04:59:07.677Z,87.47
2023-01-07T05:00:10.170Z,87.66
2023-01-07T05:01:12.349Z,88.98
2023-01-07T05:02:14.491Z,88.67
2023-01-07T05:03:16.222Z,89.52
2023-01-07T05:04:18.441Z,84.45
2023-01-07T05:05:21.144Z,86.13
2023-01-07T05:06:23.427Z,85.84
2023-01-07T05:07:25.080Z,89.97
2023-01-07T05:08:27.436Z,86.94
2023-01-07T05:09:29.308Z,86.01
2023-01-07T05:10:31.299Z,86.08
2023-01-07T05:11:32.993Z,87.31
2023-01-07T05:12:35.910Z,86.81
2023-01-07T05:13:38.282Z,87.11
2023-01-07T05:14:40.346Z,88.79
2023-01-07T05:15:41.966Z,88.35
2023-01-07T05:16:43.692Z,88.77
2023-01-07T05:17:45.956Z,87.70
2023-01-07T05:18:48.159Z,85.60
2023-01-07T05:19:49.727Z,87.67
2023-01-07T05:20:51.316Z,86.85
2023-01-07T05:21:54.278Z,85.33
2023-01-07T05:22:56.216Z,86.17
2023-01-07T05:23:58.166Z,90.17
2023-01-07T05:24:59.795Z,88.54
2023-01-07T05:26:02.709Z,84.63
2023-01-07T05:27:06.129Z,85.02
2023-01-07T05:28:09.878Z,87.18
2023-01-07T05:29:13.103Z,90.25
2023-01-07T05:30:16.594Z,88.76
2023-01-07T05:31:20.508Z,90.16
2023-01-07T05:32:22.287Z,88.31
2023-01-07T05:33:25.148Z,89.77
2023-01-07T05:34:27.971Z,88.41
2023-01-07T05:35:29.935Z,87.74
2023-01-07T05:36:31.542Z,86.39
2023-01-07T05:37:33.172Z,85.84
2023-01-07T05:38:34.853Z,88.31
2023-01-07T05:39:36.648Z,89.62
2023-01-07T05:40:41.871Z,85.62
2023-01-07T05:41:43.785Z,89.44
2023-01-07T05:42:45.668Z,84.82
2023-01-07T05:43:47.469Z,87.39
2023-01-07T05:44:49.043Z,85.21
2023-01-07T05:45:50.700Z,87.14
2023-01-07T05:46:52.335Z,84.84
2023-01-07T05:47:53.889Z,85.92
2023-01-07T05:48:55.506Z,85.45
2023-01-07T05:49:57.153Z,85.73
2023-01-07T05:50:58.759Z,87.30
2023-01-07T05:52:00.419Z,88.33
2023-01-07T05:53:02.042Z,87.91
2023-01-07T05:54:04.144Z,87.42
2023-01-07T05:55:06.926Z,87.98
2023-01-07T05:56:08.470Z,86.74
2023-01-07T05:57:11.265Z,86.33
2023-01-07T05:58:13.043Z,86.13
2023-01-07T05:59:14.727Z,86.17
2023-01-07T06:00:16.841Z,85.90
2023-01-07T06:01:18.514Z,85.37
2023-01-07T06:02:20.354Z,85.33
2023-01-07T06:03:22.412Z,86.56
2023-01-07T06:04:23.957Z,86.77
2023-01-07T06:05:25.604Z,86.11
2023-01-07T06:06:27.126Z,84.67
2023-01-07T06:07:28.678Z,85.20
2023-01-07T06:08:30.227Z,85.73
2023-01-07T06:09:31.892Z,86.26
2023-01-07T06:10:33.717Z,85.82
2023-01-07T06:11:35.304Z,85.76
2023-01-07T06:12:36.961Z,86.35
2023-01-07T06:13:38.548Z,86.81
2023-01-07T06:14:40.153Z,86.61
2023-01-07T06:15:41.826Z,86.26
2023-01-07T06:16:43.467Z,86.67
2023-01-07T06:17:45.357Z,87.64
2023-01-07T06:18:46.961Z,89.87
2023-01-07T06:19:48.660Z,89.63
2023-01-07T06:20:50.945Z,88.94
2023-01-07T06:21:52.559Z,89.22
2023-01-07T06:22:54.394Z,86.59
2023-01-07T06:23:56.326Z,86.82
2023-01-07T06:24:57.849Z,86.70
2023-01-07T06:25:59.732Z,87.31
2023-01-07T06:27:01.360Z,87.44
2023-01-07T06:28:02.958Z,88.09
2023-01-07T06:29:04.623Z,88.19
2023-01-07T06:30:10.813Z,88.17
2023-01-07T06:31:12.522Z,91.08
2023-01-07T06:32:14.151Z,91.22
2023-01-07T06:33:16.316Z,89.15
2023-01-07T06:34:18.023Z,89.57
2023-01-07T06:35:19.685Z,88.68
2023-01-07T06:36:21.254Z,88.21
2023-01-07T06:37:22.852Z,89.10
2023-01-07T06:38:24.504Z,89.34
2023-01-07T06:39:26.207Z,88.52
2023-01-07T06:40:27.882Z,88.87
2023-01-07T06:41:29.558Z,89.64
2023-01-07T06:42:31.200Z,89.94
2023-01-07T06:43:32.807Z,89.93
2023-01-07T06:44:34.649Z,89.88
2023-01-07T06:45:36.319Z,90.42
2023-01-07T06:46:37.934Z,89.92
2023-01-07T06:47:39.584Z,92.10
2023-01-07T06:48:41.167Z,92.75
2023-01-07T06:49:42.810Z,91.05
2023-01-07T06:50:44.842Z,90.18
2023-01-07T06:51:46.535Z,90.26
2023-01-07T06:52:48.369Z,90.38
2023-01-07T06:53:49.956Z,90.66
2023-01-07T06:54:51.571Z,90.81
2023-01-07T06:55:53.191Z,91.52
2023-01-07T06:56:54.760Z,91.31
2023-01-07T06:57:56.300Z,91.60
2023-01-07T06:58:57.866Z,90.39
2023-01-07T06:59:59.480Z,90.81
2023-01-07T07:01:09.926Z,90.51
2023-01-07T07:02:20.364Z,90.77
2023-01-07T07:03:21.986Z,91.99
2023-01-07T07:04:23.590Z,92.81
2023-01-07T07:05:25.393Z,93.38
2023-01-07T07:06:27.166Z,94.12
2023-01-07T07:07:28.751Z,93.54
2023-01-07T07:08:30.443Z,94.07
2023-01-07T07:09:32.066Z,94.39
2023-01-07T07:10:33.725Z,93.54
2023-01-07T07:11:35.350Z,92.49
2023-01-07T07:12:38.233Z,92.23
2023-01-07T07:13:39.935Z,91.94
2023-01-07T07:14:41.599Z,91.68
2023-01-07T07:15:43.295Z,92.48
2023-01-07T07:16:44.930Z,91.27
2023-01-07T07:17:46.858Z,92.97
2023-01-07T07:18:48.540Z,92.79
2023-01-07T07:19:50.158Z,91.80
2023-01-07T07:20:51.756Z,92.71
2023-01-07T07:21:53.371Z,92.57
2023-01-07T07:22:54.934Z,92.67
2023-01-07T07:23:56.509Z,93.64
2023-01-07T07:24:58.090Z,92.28
2023-01-07T07:25:59.751Z,93.07
2023-01-07T07:27:01.356Z,92.74
2023-01-07T07:28:03.113Z,93.03
2023-01-07T07:29:04.772Z,93.24
2023-01-07T07:30:08.174Z,93.50
2023-01-07T07:31:09.968Z,93.39
2023-01-07T07:32:11.614Z,94.10
2023-01-07T07:33:14.906Z,93.83
2023-01-07T07:34:16.595Z,93.67
2023-01-07T07:35:18.355Z,94.59
2023-01-07T07:36:20.038Z,94.15
2023-01-07T07:37:22.036Z,93.71
2023-01-07T07:38:23.631Z,93.88
2023-01-07T07:39:25.278Z,94.27
2023-01-07T07:40:27.592Z,94.87
2023-01-07T07:41:30.726Z,93.32
2023-01-07T07:43:11.556Z,92.90
2023-01-07T07:43:56.936Z,91.91
2023-01-07T07:44:58.540Z,92.43
2023-01-07T07:46:00.150Z,91.62
2023-01-07T07:47:01.740Z,92.25
2023-01-07T07:48:05.933Z,90.84
2023-01-07T07:49:07.520Z,90.53
2023-01-07T07:50:09.207Z,89.34
2023-01-07T07:51:10.844Z,89.50
2023-01-07T07:52:12.519Z,88.64
2023-01-07T07:53:15.191Z,88.04
2023-01-07T07:54:16.813Z,87.66
2023-01-07T07:55:20.109Z,88.12
2023-01-07T07:56:27.777Z,89.83
2023-01-07T07:57:29.489Z,89.40
2023-01-07T07:58:31.130Z,89.88
2023-01-07T07:59:32.795Z,88.94
2023-01-07T08:00:34.524Z,89.94
2023-01-07T08:01:37.435Z,90.25
2023-01-07T08:02:39.334Z,90.21
2023-01-07T08:03:41.188Z,89.72
2023-01-07T08:04:42.932Z,88.78
2023-01-07T08:05:45.311Z,88.91
2023-01-07T08:06:46.899Z,89.79
2023-01-07T08:07:48.510Z,89.16
2023-01-07T08:08:50.116Z,89.31
2023-01-07T08:09:51.878Z,90.53
2023-01-07T08:10:55.925Z,89.99
2023-01-07T08:11:57.592Z,90.73
2023-01-07T08:12:59.310Z,91.09
2023-01-07T08:14:00.944Z,90.06
2023-01-07T08:15:02.615Z,90.78
2023-01-07T08:16:04.496Z,90.34
2023-01-07T08:17:06.191Z,89.23
2023-01-07T08:18:09.281Z,89.29
2023-01-07T08:19:11.273Z,89.48
2023-01-07T08:20:13.019Z,89.59
2023-01-07T08:21:14.615Z,89.91
2023-01-07T08:22:16.241Z,89.83
2023-01-07T08:23:17.869Z,90.38
2023-01-07T08:24:19.483Z,90.64
2023-01-07T08:25:21.107Z,89.79
2023-01-07T08:26:22.736Z,89.36
2023-01-07T08:27:24.409Z,89.46
2023-01-07T08:28:26.005Z,89.91
2023-01-07T08:29:27.586Z,89.32
2023-01-07T08:30:30.214Z,89.91
2023-01-07T08:31:31.837Z,90.02
2023-01-07T08:32:33.537Z,90.76
2023-01-07T08:33:37.699Z,90.20
2023-01-07T08:34:39.425Z,90.79
2023-01-07T08:35:41.032Z,91.18
2023-01-07T08:36:42.672Z,90.38
2023-01-07T08:37:44.657Z,90.26
2023-01-07T08:38:50.697Z,89.92
2023-01-07T08:39:52.363Z,90.83
2023-01-07T08:40:53.925Z,90.18
2023-01-07T08:41:55.558Z,89.54
2023-01-07T08:43:01.004Z,89.26
2023-01-07T08:44:02.543Z,89.98
2023-01-07T08:45:04.825Z,90.56
2023-01-07T08:46:06.421Z,89.64
2023-01-07T08:47:08.062Z,90.29
2023-01-07T08:48:09.639Z,90.08
2023-01-07T08:49:11.539Z,90.34
2023-01-07T08:50:13.156Z,90.11
2023-01-07T08:51:14.833Z,89.33
2023-01-07T08:52:16.457Z,89.47
2023-01-07T08:53:23.547Z,89.68
2023-01-07T08:54:25.160Z,90.08
2023-01-07T08:55:26.845Z,89.63
2023-01-07T08:56:28.589Z,89.61
2023-01-07T08:57:30.247Z,89.57
2023-01-07T08:58:31.850Z,89.13
2023-01-07T08:59:33.494Z,87.74
2023-01-07T09:00:35.202Z,85.74
2023-01-07T09:01:37.057Z,83.80
2023-01-07T09:02:38.913Z,81.26
2023-01-07T09:03:40.583Z,78.30
2023-01-07T09:04:42.339Z,76.15
2023-01-07T09:05:45.964Z,73.02
2023-01-07T09:06:47.567Z,70.32
2023-01-07T09:07:52.163Z,68.11
2023-01-07T09:08:53.790Z,66.29
2023-01-07T09:09:55.376Z,65.63
2023-01-07T09:10:57.011Z,66.13
2023-01-07T09:11:58.641Z,65.07
2023-01-07T09:13:00.305Z,64.30
2023-01-07T09:14:02.013Z,61.80
2023-01-07T09:15:04.003Z,60.25
2023-01-07T09:16:06.026Z,57.35
2023-01-07T09:17:07.759Z,55.56
2023-01-07T09:18:09.402Z,54.16
2023-01-07T09:19:11.049Z,53.03
2023-01-07T09:20:12.633Z,53.07
2023-01-07T09:21:14.270Z,54.72
2023-01-07T09:22:15.852Z,55.48
2023-01-07T09:23:17.693Z,53.61
2023-01-07T09:24:19.329Z,53.62
2023-01-07T09:25:20.969Z,53.86
2023-01-07T09:26:22.607Z,51.07
2023-01-07T09:27:24.318Z,50.83
2023-01-07T09:28:25.864Z,49.76
2023-01-07T09:29:27.533Z,49.90
2023-01-07T09:30:29.143Z,49.83
2023-01-07T09:31:30.835Z,50.13
2023-01-07T09:32:32.514Z,50.69
2023-01-07T09:33:34.430Z,50.84
2023-01-07T09:34:36.062Z,51.71
2023-01-07T09:35:37.626Z,53.22
2023-01-07T09:36:39.395Z,55.10
2023-01-07T09:37:41.323Z,55.70
2023-01-07T09:38:42.907Z,57.98
2023-01-07T09:39:44.602Z,58.21
2023-01-07T09:40:46.235Z,59.92
2023-01-07T09:42:13.635Z,60.28
2023-01-07T09:43:20.936Z,61.52
2023-01-07T09:44:40.824Z,64.29
2023-01-07T09:45:45.905Z,62.49
2023-01-07T09:46:48.286Z,64.08
2023-01-07T09:47:52.916Z,65.94
2023-01-07T09:48:58.500Z,66.50
2023-01-07T09:50:23.302Z,66.73
2023-01-07T09:51:38.060Z,66.42
2023-01-07T09:52:44.717Z,67.02
2023-01-07T09:53:48.913Z,67.81
2023-01-07T09:54:53.831Z,67.64
2023-01-07T09:56:11.791Z,68.42
2023-01-07T09:57:16.608Z,68.99
2023-01-07T09:58:19.573Z,67.92
2023-01-07T09:59:21.124Z,68.75
2023-01-07T10:00:24.472Z,66.83
2023-01-07T10:01:26.039Z,66.15
2023-01-07T10:02:45.172Z,65.33
2023-01-07T10:03:46.813Z,64.11
2023-01-07T10:05:02.129Z,63.19
2023-01-07T10:06:42.772Z,62.00
2023-01-07T10:08:30.084Z,59.80
2023-01-07T10:10:11.108Z,57.10
2023-01-07T10:11:17.324Z,56.28
2023-01-07T10:12:43.923Z,54.38
2023-01-07T10:13:53.130Z,52.18
2023-01-07T10:15:03.791Z,53.13
2023-01-07T10:16:28.229Z,52.20
2023-01-07T10:17:51.362Z,50.98
2023-01-07T10:19:08.588Z,52.36
2023-01-07T10:20:41.005Z,50.65
2023-01-07T10:21:53.739Z,51.59
2023-01-07T10:23:02.684Z,51.56
2023-01-07T10:24:29.032Z,51.26
2023-01-07T10:25:46.026Z,51.50
2023-01-07T10:26:50.522Z,52.62
2023-01-07T10:27:53.659Z,51.92
2023-01-07T10:28:58.896Z,50.40
2023-01-07T10:30:06.137Z,51.95
2023-01-07T10:31:15.947Z,50.73
2023-01-07T10:32:20.853Z,51.90
2023-01-07T10:33:29.816Z,50.56
2023-01-07T10:34:36.311Z,50.41
2023-01-07T10:35:40.033Z,50.05
2023-01-07T10:36:53.395Z,50.44
2023-01-07T10:37:58.320Z,50.15
2023-01-07T10:39:18.228Z,49.44
2023-01-07T10:40:41.917Z,50.12
2023-01-07T10:42:01.098Z,50.13
2023-01-07T10:43:22.567Z,51.38
2023-01-07T10:44:42.464Z,51.08
2023-01-07T10:45:50.709Z,53.23
2023-01-07T10:47:39.958Z,50.85
2023-01-07T10:48:41.475Z,49.85
2023-01-07T10:50:07.710Z,50.09
2023-01-07T10:51:31.147Z,50.60
2023-01-07T10:52:41.464Z,49.49
2023-01-07T10:54:07.697Z,51.55
2023-01-07T10:55:44.863Z,50.42
2023-01-07T10:56:54.575Z,51.36
2023-01-07T10:57:56.402Z,49.85
2023-01-07T10:58:58.276Z,51.19
2023-01-07T11:00:05.289Z,51.59
2023-01-07T11:01:07.987Z,53.92
2023-01-07T11:02:16.239Z,56.03
2023-01-07T11:03:24.765Z,54.82
2023-01-07T11:04:26.600Z,55.30
2023-01-07T11:05:34.846Z,54.88
2023-01-07T11:06:59.294Z,56.55
2023-01-07T11:08:04.292Z,57.31
2023-01-07T11:09:09.855Z,56.34
2023-01-07T11:10:36.123Z,56.88
2023-01-07T11:11:38.136Z,54.10
2023-01-07T11:12:40.840Z,54.46
2023-01-07T11:13:43.469Z,52.21
2023-01-07T11:14:46.724Z,52.67
2023-01-07T11:15:55.006Z,54.27
2023-01-07T11:17:08.780Z,53.33
2023-01-07T11:18:33.419Z,52.18
2023-01-07T11:20:01.281Z,51.68
2023-01-07T11:21:02.998Z,52.45
2023-01-07T11:22:28.177Z,50.97
2023-01-07T11:23:37.523Z,52.12
2023-01-07T11:24:39.188Z,50.87
2023-01-07T11:25:41.150Z,51.40
2023-01-07T11:26:42.791Z,52.19
2023-01-07T11:27:45.392Z,52.41
2023-01-07T11:28:51.812Z,53.52
2023-01-07T11:30:00.608Z,51.00
2023-01-07T11:31:02.534Z,51.00
2023-01-07T11:32:05.655Z,54.84
2023-01-07T11:33:07.566Z,52.42
2023-01-07T11:34:28.048Z,50.59
2023-01-07T11:35:29.609Z,51.38
2023-01-07T11:36:42.117Z,54.85
2023-01-07T11:37:47.457Z,55.83
2023-01-07T11:38:49.057Z,55.29
2023-01-07T11:39:58.893Z,52.46
2023-01-07T11:41:01.096Z,52.47
2023-01-07T11:42:37.268Z,51.61
2023-01-07T11:43:39.570Z,53.87
2023-01-07T11:44:41.173Z,51.85
2023-01-07T11:46:19.242Z,52.09
2023-01-07T11:47:17.486Z,52.42
2023-01-07T11:48:31.941Z,54.20
2023-01-07T11:49:41.154Z,53.41
2023-01-07T11:51:00.243Z,55.49
2023-01-07T11:52:01.881Z,55.87
2023-01-07T11:53:09.454Z,54.30
2023-01-07T11:54:21.237Z,56.47
2023-01-07T11:55:23.242Z,54.96
2023-01-07T11:56:33.519Z,55.49
2023-01-07T11:57:35.173Z,54.31
2023-01-07T11:58:45.002Z,55.03
2023-01-07T11:59:46.630Z,52.87
2023-01-07T12:01:19.367Z,54.77
2023-01-07T12:02:24.946Z,58.16
2023-01-07T12:03:26.638Z,56.20
2023-01-07T12:04:40.243Z,56.59
2023-01-07T12:05:45.080Z,56.40
2023-01-07T12:06:48.572Z,56.45
2023-01-07T12:07:51.174Z,58.10
2023-01-07T12:08:55.811Z,62.92
2023-01-07T12:09:57.400Z,57.50
2023-01-07T12:11:09.053Z,61.93
2023-01-07T12:12:34.167Z,58.31
2023-01-07T12:13:36.590Z,58.95
2023-01-07T12:14:38.963Z,60.46
2023-01-07T12:15:50.047Z,59.84
2023-01-07T12:16:51.984Z,59.18
2023-01-07T12:18:19.619Z,60.51
2023-01-07T12:19:34.214Z,59.80
2023-01-07T12:20:51.696Z,60.07
2023-01-07T12:22:02.239Z,62.35
2023-01-07T12:23:09.865Z,60.58
2023-01-07T12:24:37.590Z,59.98
2023-01-07T12:25:59.688Z,59.62
2023-01-07T12:27:27.690Z,60.78
2023-01-07T12:28:44.704Z,60.58
2023-01-07T12:29:58.250Z,65.44
2023-01-07T12:31:09.407Z,62.58
2023-01-07T12:32:13.541Z,67.20
2023-01-07T12:33:36.452Z,62.75
2023-01-07T12:34:48.407Z,63.33
2023-01-07T12:35:50.555Z,64.91
2023-01-07T12:37:01.849Z,61.41
2023-01-07T12:38:09.305Z,61.90
2023-01-07T12:39:33.086Z,62.71
2023-01-07T12:40:41.745Z,63.48
2023-01-07T12:41:45.920Z,61.80
2023-01-07T12:43:01.445Z,63.99
2023-01-07T12:44:07.321Z,63.65
2023-01-07T12:45:42.112Z,65.15
2023-01-07T12:47:31.836Z,70.27
2023-01-07T12:48:36.905Z,63.66
2023-01-07T12:49:58.068Z,64.42
2023-01-07T12:51:00.059Z,64.48
2023-01-07T12:52:33.941Z,62.37
2023-01-07T12:53:51.450Z,64.19
2023-01-07T12:54:59.686Z,68.50
2023-01-07T12:56:06.967Z,67.29
2023-01-07T12:57:38.140Z,69.33
2023-01-07T12:59:02.112Z,64.62
2023-01-07T13:00:08.375Z,66.82
2023-01-07T13:01:37.073Z,66.50
2023-01-07T13:03:07.707Z,69.98
2023-01-07T13:04:21.428Z,68.86
2023-01-07T13:05:29.159Z,69.88
2023-01-07T13:06:33.335Z,67.72
2023-01-07T13:07:46.150Z,68.13
2023-01-07T13:08:57.295Z,66.88
2023-01-07T13:10:02.434Z,68.32
2023-01-07T13:11:14.437Z,66.59
2023-01-07T13:12:43.052Z,66.13
2023-01-07T13:13:49.698Z,67.45
2023-01-07T13:14:53.628Z,68.38
2023-01-07T13:15:56.838Z,67.92
2023-01-07T13:17:06.699Z,68.02
2023-01-07T13:18:10.995Z,67.94
2023-01-07T13:19:12.764Z,72.38
2023-01-07T13:20:16.078Z,69.28
2023-01-07T13:21:18.423Z,67.90
2023-01-07T13:22:35.344Z,66.33
2023-01-07T13:24:07.374Z,69.23
2023-01-07T13:25:32.856Z,68.99
2023-01-07T13:26:52.262Z,67.00
2023-01-07T13:27:56.598Z,67.33
2023-01-07T13:29:07.436Z,69.53
2023-01-07T13:30:28.560Z,70.31
2023-01-07T13:31:36.203Z,69.47
2023-01-07T13:32:56.611Z,68.14
2023-01-07T13:34:37.543Z,67.54
2023-01-07T13:35:57.475Z,68.55
2023-01-07T13:37:33.492Z,68.48
2023-01-07T13:39:05.110Z,68.05
2023-01-07T13:40:34.353Z,66.85
2023-01-07T13:42:06.814Z,68.36
2023-01-07T13:43:39.269Z,69.04
2023-01-07T13:44:52.486Z,69.81
2023-01-07T13:46:03.693Z,69.86
2023-01-07T13:47:05.567Z,67.85
2023-01-07T13:48:19.639Z,67.99
2023-01-07T13:49:30.004Z,69.43
2023-01-07T13:50:54.229Z,66.72
2023-01-07T13:51:57.022Z,66.80
2023-01-07T13:53:01.987Z,68.09
2023-01-07T13:54:04.147Z,68.66
2023-01-07T13:55:40.684Z,68.17
2023-01-07T13:56:42.465Z,70.25
2023-01-07T13:57:44.866Z,67.80
2023-01-07T13:58:53.231Z,68.77
2023-01-07T13:59:58.576Z,68.32
2023-01-07T14:01:03.233Z,69.25
2023-01-07T14:02:19.041Z,68.21
2023-01-07T14:03:33.090Z,67.98
2023-01-07T14:04:35.805Z,67.44
2023-01-07T14:05:37.456Z,69.52
2023-01-07T14:06:42.600Z,69.67
2023-01-07T14:07:48.669Z,67.83
2023-01-07T14:09:15.987Z,69.38
2023-01-07T14:10:24.328Z,69.69
2023-01-07T14:11:44.370Z,69.30
2023-01-07T14:13:00.922Z,68.37
2023-01-07T14:14:20.740Z,69.03
2023-01-07T14:15:46.247Z,69.36
2023-01-07T14:16:59.899Z,70.99
2023-01-07T14:18:31.116Z,72.16
2023-01-07T14:19:48.031Z,70.72
2023-01-07T14:20:55.293Z,72.46